sensor_id;sensor_type;location;lat;lon;timestamp;P1;durP1;ratioP1;P2;durP2;ratioP2
75400;SDS011;63974;47.538;18.972;2023-06-24T00:00:14;7.27;;;4.60;;
75400;SDS011;63974;47.538;18.972;2023-06-24T00:03:20;7.10;;;4.35;;
75400;SDS011;63974;47.538;18.972;2023-06-24T00:06:23;7.90;;;4.95;;
75400;SDS011;63974;47.538;18.972;2023-06-24T00:09:28;7.68;;;5.00;;
75400;SDS011;63974;47.538;18.972;2023-06-24T00:12:32;8.07;;;4.47;;
75400;SDS011;63974;47.538;18.972;2023-06-24T00:15:35;8.93;;;5.40;;
75400;SDS011;63974;47.538;18.972;2023-06-24T00:18:38;8.48;;;5.43;;
75400;SDS011;63974;47.538;18.972;2023-06-24T00:21:43;10.45;;;4.95;;
75400;SDS011;63974;47.538;18.972;2023-06-24T00:24:47;8.25;;;4.53;;
75400;SDS011;63974;47.538;18.972;2023-06-24T00:27:50;9.57;;;4.88;;
75400;SDS011;63974;47.538;18.972;2023-06-24T00:30:53;8.83;;;5.23;;
75400;SDS011;63974;47.538;18.972;2023-06-24T00:33:56;7.25;;;4.50;;
75400;SDS011;63974;47.538;18.972;2023-06-24T00:36:59;9.77;;;5.78;;
75400;SDS011;63974;47.538;18.972;2023-06-24T00:40:02;8.18;;;5.72;;
75400;SDS011;63974;47.538;18.972;2023-06-24T00:43:06;11.33;;;6.17;;
75400;SDS011;63974;47.538;18.972;2023-06-24T00:46:10;11.13;;;5.83;;
75400;SDS011;63974;47.538;18.972;2023-06-24T00:49:13;8.63;;;5.72;;
75400;SDS011;63974;47.538;18.972;2023-06-24T00:52:17;13.75;;;6.35;;
75400;SDS011;63974;47.538;18.972;2023-06-24T00:55:19;10.23;;;5.45;;
75400;SDS011;63974;47.538;18.972;2023-06-24T00:58:23;11.13;;;5.28;;
75400;SDS011;63974;47.538;18.972;2023-06-24T01:01:26;8.90;;;5.90;;
75400;SDS011;63974;47.538;18.972;2023-06-24T01:04:31;10.63;;;5.68;;
75400;SDS011;63974;47.538;18.972;2023-06-24T01:07:35;8.57;;;5.57;;
75400;SDS011;63974;47.538;18.972;2023-06-24T01:10:40;11.30;;;6.05;;
75400;SDS011;63974;47.538;18.972;2023-06-24T01:13:42;9.32;;;5.80;;
75400;SDS011;63974;47.538;18.972;2023-06-24T01:16:51;8.90;;;6.20;;
75400;SDS011;63974;47.538;18.972;2023-06-24T01:20:20;12.35;;;6.40;;
75400;SDS011;63974;47.538;18.972;2023-06-24T01:27:06;11.68;;;6.18;;
75400;SDS011;63974;47.538;18.972;2023-06-24T01:30:19;12.93;;;5.95;;
75400;SDS011;63974;47.538;18.972;2023-06-24T01:33:38;11.50;;;6.20;;
75400;SDS011;63974;47.538;18.972;2023-06-24T01:36:54;10.88;;;5.97;;
75400;SDS011;63974;47.538;18.972;2023-06-24T01:40:02;10.30;;;6.20;;
75400;SDS011;63974;47.538;18.972;2023-06-24T01:43:13;10.05;;;6.22;;
75400;SDS011;63974;47.538;18.972;2023-06-24T01:46:21;10.40;;;6.43;;
75400;SDS011;63974;47.538;18.972;2023-06-24T01:49:26;10.27;;;6.17;;
75400;SDS011;63974;47.538;18.972;2023-06-24T01:52:32;12.23;;;7.28;;
75400;SDS011;63974;47.538;18.972;2023-06-24T01:55:37;9.70;;;6.60;;
75400;SDS011;63974;47.538;18.972;2023-06-24T01:58:43;10.40;;;6.55;;
75400;SDS011;63974;47.538;18.972;2023-06-24T02:01:48;11.80;;;6.80;;
75400;SDS011;63974;47.538;18.972;2023-06-24T02:04:54;12.80;;;6.50;;
75400;SDS011;63974;47.538;18.972;2023-06-24T02:07:58;10.50;;;6.85;;
75400;SDS011;63974;47.538;18.972;2023-06-24T02:11:03;11.32;;;6.88;;
75400;SDS011;63974;47.538;18.972;2023-06-24T02:14:07;11.40;;;7.13;;
75400;SDS011;63974;47.538;18.972;2023-06-24T02:17:12;14.73;;;7.43;;
75400;SDS011;63974;47.538;18.972;2023-06-24T02:20:17;10.00;;;6.70;;
75400;SDS011;63974;47.538;18.972;2023-06-24T02:23:21;9.93;;;6.03;;
75400;SDS011;63974;47.538;18.972;2023-06-24T02:26:26;9.23;;;7.03;;
75400;SDS011;63974;47.538;18.972;2023-06-24T02:29:29;13.98;;;7.82;;
75400;SDS011;63974;47.538;18.972;2023-06-24T02:32:33;14.43;;;6.67;;
75400;SDS011;63974;47.538;18.972;2023-06-24T02:35:38;12.03;;;7.60;;
75400;SDS011;63974;47.538;18.972;2023-06-24T02:38:43;11.35;;;7.28;;
75400;SDS011;63974;47.538;18.972;2023-06-24T02:41:46;12.48;;;8.27;;
75400;SDS011;63974;47.538;18.972;2023-06-24T02:44:53;15.20;;;9.35;;
75400;SDS011;63974;47.538;18.972;2023-06-24T02:47:56;12.23;;;7.90;;
75400;SDS011;63974;47.538;18.972;2023-06-24T02:51:02;13.37;;;8.40;;
75400;SDS011;63974;47.538;18.972;2023-06-24T02:54:06;13.25;;;8.18;;
75400;SDS011;63974;47.538;18.972;2023-06-24T02:57:30;13.98;;;8.23;;
75400;SDS011;63974;47.538;18.972;2023-06-24T03:01:00;11.65;;;8.55;;
75400;SDS011;63974;47.538;18.972;2023-06-24T03:04:12;13.53;;;8.63;;
75400;SDS011;63974;47.538;18.972;2023-06-24T03:07:16;15.40;;;8.50;;
75400;SDS011;63974;47.538;18.972;2023-06-24T03:10:23;16.02;;;9.18;;
75400;SDS011;63974;47.538;18.972;2023-06-24T03:13:28;11.55;;;8.02;;
75400;SDS011;63974;47.538;18.972;2023-06-24T03:16:53;12.20;;;8.07;;
75400;SDS011;63974;47.538;18.972;2023-06-24T03:19:58;17.23;;;8.90;;
75400;SDS011;63974;47.538;18.972;2023-06-24T03:23:01;15.60;;;8.17;;
75400;SDS011;63974;47.538;18.972;2023-06-24T03:26:04;15.07;;;9.13;;
75400;SDS011;63974;47.538;18.972;2023-06-24T03:29:08;12.73;;;8.63;;
75400;SDS011;63974;47.538;18.972;2023-06-24T03:32:14;11.93;;;7.75;;
75400;SDS011;63974;47.538;18.972;2023-06-24T03:35:18;12.30;;;7.90;;
75400;SDS011;63974;47.538;18.972;2023-06-24T03:38:23;15.60;;;7.53;;
75400;SDS011;63974;47.538;18.972;2023-06-24T03:41:26;10.00;;;6.95;;
75400;SDS011;63974;47.538;18.972;2023-06-24T03:44:28;11.77;;;7.28;;
75400;SDS011;63974;47.538;18.972;2023-06-24T03:47:32;12.70;;;7.57;;
75400;SDS011;63974;47.538;18.972;2023-06-24T03:50:35;13.32;;;6.97;;
75400;SDS011;63974;47.538;18.972;2023-06-24T03:53:38;12.47;;;7.30;;
75400;SDS011;63974;47.538;18.972;2023-06-24T03:56:41;10.73;;;7.32;;
75400;SDS011;63974;47.538;18.972;2023-06-24T03:59:44;11.73;;;7.30;;
75400;SDS011;63974;47.538;18.972;2023-06-24T04:02:48;15.20;;;8.05;;
75400;SDS011;63974;47.538;18.972;2023-06-24T04:05:55;12.75;;;7.75;;
75400;SDS011;63974;47.538;18.972;2023-06-24T04:08:58;12.07;;;7.23;;
75400;SDS011;63974;47.538;18.972;2023-06-24T04:12:01;13.00;;;7.30;;
75400;SDS011;63974;47.538;18.972;2023-06-24T04:15:09;8.88;;;6.22;;
75400;SDS011;63974;47.538;18.972;2023-06-24T04:18:12;8.32;;;5.10;;
75400;SDS011;63974;47.538;18.972;2023-06-24T04:21:14;10.03;;;4.87;;
75400;SDS011;63974;47.538;18.972;2023-06-24T04:24:17;8.13;;;4.17;;
75400;SDS011;63974;47.538;18.972;2023-06-24T04:27:20;7.10;;;4.53;;
75400;SDS011;63974;47.538;18.972;2023-06-24T04:30:23;6.57;;;4.28;;
75400;SDS011;63974;47.538;18.972;2023-06-24T04:33:25;7.70;;;4.00;;
75400;SDS011;63974;47.538;18.972;2023-06-24T04:36:29;8.85;;;4.60;;
75400;SDS011;63974;47.538;18.972;2023-06-24T04:39:32;6.07;;;4.67;;
75400;SDS011;63974;47.538;18.972;2023-06-24T04:42:35;7.05;;;4.28;;
75400;SDS011;63974;47.538;18.972;2023-06-24T04:45:39;9.25;;;4.78;;
75400;SDS011;63974;47.538;18.972;2023-06-24T04:48:42;8.52;;;4.72;;
75400;SDS011;63974;47.538;18.972;2023-06-24T04:51:44;7.23;;;4.70;;
75400;SDS011;63974;47.538;18.972;2023-06-24T04:54:47;7.83;;;5.27;;
75400;SDS011;63974;47.538;18.972;2023-06-24T04:57:50;7.30;;;5.32;;
75400;SDS011;63974;47.538;18.972;2023-06-24T05:00:53;8.05;;;5.03;;
75400;SDS011;63974;47.538;18.972;2023-06-24T05:03:56;7.35;;;4.65;;
75400;SDS011;63974;47.538;18.972;2023-06-24T05:06:59;7.17;;;4.30;;
75400;SDS011;63974;47.538;18.972;2023-06-24T05:10:02;7.00;;;4.77;;
75400;SDS011;63974;47.538;18.972;2023-06-24T05:13:04;7.20;;;4.18;;
75400;SDS011;63974;47.538;18.972;2023-06-24T05:16:07;10.05;;;4.65;;
75400;SDS011;63974;47.538;18.972;2023-06-24T05:19:10;7.10;;;4.00;;
75400;SDS011;63974;47.538;18.972;2023-06-24T05:22:13;6.20;;;4.10;;
75400;SDS011;63974;47.538;18.972;2023-06-24T05:25:15;7.47;;;3.80;;
75400;SDS011;63974;47.538;18.972;2023-06-24T05:28:18;4.38;;;2.95;;
75400;SDS011;63974;47.538;18.972;2023-06-24T05:31:21;4.10;;;2.53;;
75400;SDS011;63974;47.538;18.972;2023-06-24T05:34:24;4.32;;;2.70;;
75400;SDS011;63974;47.538;18.972;2023-06-24T05:37:27;3.15;;;2.22;;
75400;SDS011;63974;47.538;18.972;2023-06-24T05:40:29;3.17;;;2.43;;
75400;SDS011;63974;47.538;18.972;2023-06-24T05:43:32;3.17;;;1.77;;
75400;SDS011;63974;47.538;18.972;2023-06-24T05:46:35;2.85;;;1.80;;
75400;SDS011;63974;47.538;18.972;2023-06-24T05:49:38;3.70;;;1.88;;
75400;SDS011;63974;47.538;18.972;2023-06-24T05:52:41;3.13;;;1.67;;
75400;SDS011;63974;47.538;18.972;2023-06-24T05:55:44;2.10;;;1.30;;
75400;SDS011;63974;47.538;18.972;2023-06-24T05:58:47;2.25;;;1.40;;
75400;SDS011;63974;47.538;18.972;2023-06-24T06:01:51;3.38;;;1.40;;
75400;SDS011;63974;47.538;18.972;2023-06-24T06:04:53;2.33;;;0.75;;
75400;SDS011;63974;47.538;18.972;2023-06-24T06:07:56;1.57;;;1.03;;
75400;SDS011;63974;47.538;18.972;2023-06-24T06:10:59;1.57;;;0.87;;
75400;SDS011;63974;47.538;18.972;2023-06-24T06:14:04;2.45;;;1.02;;
75400;SDS011;63974;47.538;18.972;2023-06-24T06:17:08;2.38;;;1.08;;
75400;SDS011;63974;47.538;18.972;2023-06-24T06:20:10;1.73;;;0.80;;
75400;SDS011;63974;47.538;18.972;2023-06-24T06:23:14;2.07;;;1.23;;
75400;SDS011;63974;47.538;18.972;2023-06-24T06:26:17;3.53;;;0.83;;
75400;SDS011;63974;47.538;18.972;2023-06-24T06:29:20;1.77;;;1.10;;
75400;SDS011;63974;47.538;18.972;2023-06-24T06:32:23;1.98;;;1.10;;
75400;SDS011;63974;47.538;18.972;2023-06-24T06:35:26;2.22;;;1.00;;
75400;SDS011;63974;47.538;18.972;2023-06-24T06:38:28;1.30;;;0.73;;
75400;SDS011;63974;47.538;18.972;2023-06-24T06:41:31;1.93;;;1.07;;
75400;SDS011;63974;47.538;18.972;2023-06-24T06:44:34;1.13;;;0.70;;
75400;SDS011;63974;47.538;18.972;2023-06-24T06:47:37;1.52;;;0.75;;
75400;SDS011;63974;47.538;18.972;2023-06-24T06:50:40;2.08;;;1.00;;
75400;SDS011;63974;47.538;18.972;2023-06-24T06:53:42;1.07;;;0.73;;
75400;SDS011;63974;47.538;18.972;2023-06-24T06:56:45;3.10;;;1.10;;
75400;SDS011;63974;47.538;18.972;2023-06-24T06:59:48;1.42;;;0.80;;
75400;SDS011;63974;47.538;18.972;2023-06-24T07:02:53;1.88;;;1.00;;
75400;SDS011;63974;47.538;18.972;2023-06-24T07:05:56;1.30;;;0.85;;
75400;SDS011;63974;47.538;18.972;2023-06-24T07:08:59;0.52;;;0.45;;
75400;SDS011;63974;47.538;18.972;2023-06-24T07:12:01;1.37;;;0.90;;
75400;SDS011;63974;47.538;18.972;2023-06-24T07:15:04;2.08;;;1.00;;
75400;SDS011;63974;47.538;18.972;2023-06-24T07:18:07;1.25;;;0.77;;
75400;SDS011;63974;47.538;18.972;2023-06-24T07:21:10;2.20;;;0.77;;
75400;SDS011;63974;47.538;18.972;2023-06-24T07:24:13;0.68;;;0.65;;
75400;SDS011;63974;47.538;18.972;2023-06-24T07:27:16;1.57;;;1.10;;
75400;SDS011;63974;47.538;18.972;2023-06-24T07:30:19;3.05;;;0.68;;
75400;SDS011;63974;47.538;18.972;2023-06-24T07:33:21;0.95;;;0.60;;
75400;SDS011;63974;47.538;18.972;2023-06-24T07:36:24;1.13;;;0.90;;
75400;SDS011;63974;47.538;18.972;2023-06-24T07:39:27;1.00;;;0.90;;
75400;SDS011;63974;47.538;18.972;2023-06-24T07:42:30;1.47;;;1.37;;
75400;SDS011;63974;47.538;18.972;2023-06-24T07:45:33;1.70;;;1.20;;
75400;SDS011;63974;47.538;18.972;2023-06-24T07:48:36;1.85;;;1.40;;
75400;SDS011;63974;47.538;18.972;2023-06-24T07:51:38;1.27;;;1.00;;
75400;SDS011;63974;47.538;18.972;2023-06-24T07:54:42;1.50;;;1.07;;
75400;SDS011;63974;47.538;18.972;2023-06-24T07:57:45;1.83;;;0.73;;
75400;SDS011;63974;47.538;18.972;2023-06-24T08:00:49;1.17;;;0.88;;
75400;SDS011;63974;47.538;18.972;2023-06-24T08:03:51;2.35;;;1.00;;
75400;SDS011;63974;47.538;18.972;2023-06-24T08:06:54;1.60;;;1.00;;
75400;SDS011;63974;47.538;18.972;2023-06-24T08:09:57;0.80;;;0.60;;
75400;SDS011;63974;47.538;18.972;2023-06-24T08:13:00;1.07;;;0.97;;
75400;SDS011;63974;47.538;18.972;2023-06-24T08:16:03;2.53;;;0.95;;
75400;SDS011;63974;47.538;18.972;2023-06-24T08:19:06;1.00;;;0.75;;
75400;SDS011;63974;47.538;18.972;2023-06-24T08:22:08;1.95;;;0.65;;
75400;SDS011;63974;47.538;18.972;2023-06-24T08:25:11;0.90;;;0.70;;
75400;SDS011;63974;47.538;18.972;2023-06-24T08:28:14;0.77;;;0.63;;
75400;SDS011;63974;47.538;18.972;2023-06-24T08:31:17;0.77;;;0.77;;
75400;SDS011;63974;47.538;18.972;2023-06-24T08:34:20;2.30;;;0.90;;
75400;SDS011;63974;47.538;18.972;2023-06-24T08:37:22;1.00;;;0.90;;
75400;SDS011;63974;47.538;18.972;2023-06-24T08:40:25;1.20;;;0.70;;
75400;SDS011;63974;47.538;18.972;2023-06-24T08:43:30;1.43;;;0.80;;
75400;SDS011;63974;47.538;18.972;2023-06-24T08:46:32;1.20;;;1.10;;
75400;SDS011;63974;47.538;18.972;2023-06-24T08:49:39;1.08;;;0.98;;
75400;SDS011;63974;47.538;18.972;2023-06-24T08:52:56;2.53;;;0.90;;
75400;SDS011;63974;47.538;18.972;2023-06-24T08:56:00;2.77;;;1.30;;
75400;SDS011;63974;47.538;18.972;2023-06-24T08:59:03;4.23;;;0.77;;
75400;SDS011;63974;47.538;18.972;2023-06-24T09:02:07;1.20;;;1.10;;
75400;SDS011;63974;47.538;18.972;2023-06-24T09:05:10;1.45;;;1.15;;
75400;SDS011;63974;47.538;18.972;2023-06-24T09:08:13;0.77;;;0.77;;
75400;SDS011;63974;47.538;18.972;2023-06-24T09:11:21;3.03;;;0.73;;
75400;SDS011;63974;47.538;18.972;2023-06-24T09:14:25;1.63;;;0.93;;
75400;SDS011;63974;47.538;18.972;2023-06-24T09:17:29;1.27;;;1.17;;
75400;SDS011;63974;47.538;18.972;2023-06-24T09:20:32;1.35;;;0.85;;
75400;SDS011;63974;47.538;18.972;2023-06-24T09:23:42;1.42;;;1.13;;
75400;SDS011;63974;47.538;18.972;2023-06-24T09:26:45;1.47;;;1.20;;
75400;SDS011;63974;47.538;18.972;2023-06-24T09:29:48;2.00;;;0.80;;
75400;SDS011;63974;47.538;18.972;2023-06-24T09:32:52;3.83;;;0.70;;
75400;SDS011;63974;47.538;18.972;2023-06-24T09:35:56;1.13;;;0.60;;
75400;SDS011;63974;47.538;18.972;2023-06-24T09:39:02;1.25;;;0.63;;
75400;SDS011;63974;47.538;18.972;2023-06-24T09:42:20;0.90;;;0.70;;
75400;SDS011;63974;47.538;18.972;2023-06-24T09:45:25;0.80;;;0.50;;
75400;SDS011;63974;47.538;18.972;2023-06-24T09:48:29;0.85;;;0.70;;
75400;SDS011;63974;47.538;18.972;2023-06-24T09:51:33;2.08;;;0.73;;
75400;SDS011;63974;47.538;18.972;2023-06-24T09:54:39;2.55;;;0.65;;
75400;SDS011;63974;47.538;18.972;2023-06-24T09:57:46;0.83;;;0.67;;
75400;SDS011;63974;47.538;18.972;2023-06-24T10:00:52;1.57;;;1.40;;
75400;SDS011;63974;47.538;18.972;2023-06-24T10:03:57;1.75;;;1.40;;
75400;SDS011;63974;47.538;18.972;2023-06-24T10:07:00;2.15;;;1.33;;
75400;SDS011;63974;47.538;18.972;2023-06-24T10:10:05;2.38;;;1.60;;
75400;SDS011;63974;47.538;18.972;2023-06-24T10:13:08;2.47;;;1.70;;
75400;SDS011;63974;47.538;18.972;2023-06-24T10:16:11;1.80;;;1.57;;
75400;SDS011;63974;47.538;18.972;2023-06-24T10:19:20;2.88;;;1.77;;
75400;SDS011;63974;47.538;18.972;2023-06-24T10:22:24;3.65;;;1.90;;
75400;SDS011;63974;47.538;18.972;2023-06-24T10:25:35;1.65;;;1.55;;
75400;SDS011;63974;47.538;18.972;2023-06-24T10:32:07;2.57;;;1.60;;
75400;SDS011;63974;47.538;18.972;2023-06-24T10:35:24;1.52;;;1.20;;
75400;SDS011;63974;47.538;18.972;2023-06-24T10:38:28;2.45;;;1.70;;
75400;SDS011;63974;47.538;18.972;2023-06-24T10:41:31;1.90;;;1.58;;
75400;SDS011;63974;47.538;18.972;2023-06-24T10:44:44;1.90;;;1.70;;
75400;SDS011;63974;47.538;18.972;2023-06-24T10:47:49;1.73;;;1.53;;
75400;SDS011;63974;47.538;18.972;2023-06-24T10:50:55;1.70;;;1.60;;
75400;SDS011;63974;47.538;18.972;2023-06-24T10:53:58;1.50;;;1.40;;
75400;SDS011;63974;47.538;18.972;2023-06-24T10:57:00;2.05;;;1.70;;
75400;SDS011;63974;47.538;18.972;2023-06-24T11:00:04;1.53;;;1.43;;
75400;SDS011;63974;47.538;18.972;2023-06-24T11:03:10;2.63;;;2.13;;
75400;SDS011;63974;47.538;18.972;2023-06-24T11:06:17;1.65;;;1.55;;
75400;SDS011;63974;47.538;18.972;2023-06-24T11:09:20;1.88;;;1.77;;
75400;SDS011;63974;47.538;18.972;2023-06-24T11:12:26;1.98;;;1.52;;
75400;SDS011;63974;47.538;18.972;2023-06-24T11:15:31;1.87;;;1.77;;
75400;SDS011;63974;47.538;18.972;2023-06-24T11:18:37;1.70;;;1.60;;
75400;SDS011;63974;47.538;18.972;2023-06-24T11:21:40;1.98;;;1.42;;
75400;SDS011;63974;47.538;18.972;2023-06-24T11:24:43;1.98;;;1.40;;
75400;SDS011;63974;47.538;18.972;2023-06-24T11:27:46;1.65;;;1.40;;
75400;SDS011;63974;47.538;18.972;2023-06-24T11:30:49;1.50;;;1.40;;
75400;SDS011;63974;47.538;18.972;2023-06-24T11:33:52;2.77;;;1.80;;
75400;SDS011;63974;47.538;18.972;2023-06-24T11:36:55;1.75;;;1.65;;
75400;SDS011;63974;47.538;18.972;2023-06-24T11:40:01;1.85;;;1.75;;
75400;SDS011;63974;47.538;18.972;2023-06-24T11:43:08;2.17;;;2.00;;
75400;SDS011;63974;47.538;18.972;2023-06-24T11:46:20;2.10;;;2.00;;
75400;SDS011;63974;47.538;18.972;2023-06-24T11:49:51;1.80;;;1.70;;
75400;SDS011;63974;47.538;18.972;2023-06-24T11:52:55;1.65;;;1.55;;
75400;SDS011;63974;47.538;18.972;2023-06-24T11:55:58;3.95;;;1.70;;
75400;SDS011;63974;47.538;18.972;2023-06-24T11:59:03;1.95;;;1.48;;
75400;SDS011;63974;47.538;18.972;2023-06-24T12:02:12;2.00;;;1.60;;
75400;SDS011;63974;47.538;18.972;2023-06-24T12:05:26;1.60;;;1.50;;
75400;SDS011;63974;47.538;18.972;2023-06-24T12:08:31;1.45;;;1.35;;
75400;SDS011;63974;47.538;18.972;2023-06-24T12:11:52;1.83;;;1.60;;
75400;SDS011;63974;47.538;18.972;2023-06-24T12:14:55;1.65;;;1.55;;
75400;SDS011;63974;47.538;18.972;2023-06-24T12:17:58;1.90;;;1.80;;
75400;SDS011;63974;47.538;18.972;2023-06-24T12:21:01;1.70;;;1.60;;
75400;SDS011;63974;47.538;18.972;2023-06-24T12:24:04;2.25;;;1.90;;
75400;SDS011;63974;47.538;18.972;2023-06-24T12:27:07;1.77;;;1.67;;
75400;SDS011;63974;47.538;18.972;2023-06-24T12:30:11;1.95;;;1.85;;
75400;SDS011;63974;47.538;18.972;2023-06-24T12:33:14;1.50;;;1.40;;
75400;SDS011;63974;47.538;18.972;2023-06-24T12:36:21;1.77;;;1.10;;
75400;SDS011;63974;47.538;18.972;2023-06-24T12:39:24;1.10;;;1.00;;
75400;SDS011;63974;47.538;18.972;2023-06-24T12:42:27;1.00;;;1.00;;
75400;SDS011;63974;47.538;18.972;2023-06-24T12:45:30;1.10;;;1.10;;
75400;SDS011;63974;47.538;18.972;2023-06-24T12:48:33;1.37;;;1.27;;
75400;SDS011;63974;47.538;18.972;2023-06-24T12:51:35;1.17;;;1.10;;
75400;SDS011;63974;47.538;18.972;2023-06-24T12:54:38;1.88;;;1.60;;
75400;SDS011;63974;47.538;18.972;2023-06-24T12:57:41;1.30;;;1.20;;
75400;SDS011;63974;47.538;18.972;2023-06-24T13:00:44;1.63;;;1.30;;
75400;SDS011;63974;47.538;18.972;2023-06-24T13:03:46;1.30;;;1.30;;
75400;SDS011;63974;47.538;18.972;2023-06-24T13:06:51;2.07;;;1.97;;
75400;SDS011;63974;47.538;18.972;2023-06-24T13:09:53;1.55;;;1.45;;
75400;SDS011;63974;47.538;18.972;2023-06-24T13:12:56;1.92;;;1.83;;
75400;SDS011;63974;47.538;18.972;2023-06-24T13:15:59;1.30;;;1.30;;
75400;SDS011;63974;47.538;18.972;2023-06-24T13:19:02;2.37;;;1.77;;
75400;SDS011;63974;47.538;18.972;2023-06-24T13:22:05;1.83;;;1.73;;
75400;SDS011;63974;47.538;18.972;2023-06-24T13:25:08;2.13;;;1.70;;
75400;SDS011;63974;47.538;18.972;2023-06-24T13:28:11;1.33;;;1.23;;
75400;SDS011;63974;47.538;18.972;2023-06-24T13:31:14;2.25;;;1.58;;
75400;SDS011;63974;47.538;18.972;2023-06-24T13:34:18;1.90;;;1.80;;
75400;SDS011;63974;47.538;18.972;2023-06-24T13:37:21;1.43;;;1.30;;
75400;SDS011;63974;47.538;18.972;2023-06-24T13:40:24;1.58;;;1.48;;
75400;SDS011;63974;47.538;18.972;2023-06-24T13:43:27;3.00;;;1.40;;
75400;SDS011;63974;47.538;18.972;2023-06-24T13:46:30;1.35;;;1.35;;
75400;SDS011;63974;47.538;18.972;2023-06-24T13:49:33;1.30;;;1.30;;
75400;SDS011;63974;47.538;18.972;2023-06-24T13:52:36;2.23;;;1.20;;
75400;SDS011;63974;47.538;18.972;2023-06-24T13:55:39;1.30;;;1.10;;
75400;SDS011;63974;47.538;18.972;2023-06-24T13:58:42;2.22;;;1.30;;
75400;SDS011;63974;47.538;18.972;2023-06-24T14:01:45;1.10;;;1.10;;
75400;SDS011;63974;47.538;18.972;2023-06-24T14:04:48;1.53;;;1.43;;
75400;SDS011;63974;47.538;18.972;2023-06-24T14:07:51;1.33;;;1.23;;
75400;SDS011;63974;47.538;18.972;2023-06-24T14:10:57;3.03;;;1.05;;
75400;SDS011;63974;47.538;18.972;2023-06-24T14:14:00;0.77;;;0.77;;
75400;SDS011;63974;47.538;18.972;2023-06-24T14:17:04;0.90;;;0.90;;
75400;SDS011;63974;47.538;18.972;2023-06-24T14:20:11;1.30;;;1.20;;
75400;SDS011;63974;47.538;18.972;2023-06-24T14:23:14;3.50;;;1.10;;
75400;SDS011;63974;47.538;18.972;2023-06-24T14:26:17;1.40;;;1.30;;
75400;SDS011;63974;47.538;18.972;2023-06-24T14:29:19;1.00;;;1.00;;
75400;SDS011;63974;47.538;18.972;2023-06-24T14:32:22;0.90;;;0.90;;
75400;SDS011;63974;47.538;18.972;2023-06-24T14:35:27;1.63;;;1.43;;
75400;SDS011;63974;47.538;18.972;2023-06-24T14:38:29;0.93;;;0.93;;
75400;SDS011;63974;47.538;18.972;2023-06-24T14:41:32;0.95;;;0.95;;
75400;SDS011;63974;47.538;18.972;2023-06-24T14:44:35;0.93;;;0.93;;
75400;SDS011;63974;47.538;18.972;2023-06-24T14:47:38;0.90;;;0.90;;
75400;SDS011;63974;47.538;18.972;2023-06-24T14:50:40;3.03;;;1.20;;
75400;SDS011;63974;47.538;18.972;2023-06-24T14:53:43;0.77;;;0.77;;
75400;SDS011;63974;47.538;18.972;2023-06-24T14:56:46;1.45;;;1.35;;
75400;SDS011;63974;47.538;18.972;2023-06-24T14:59:49;1.20;;;1.20;;
75400;SDS011;63974;47.538;18.972;2023-06-24T15:02:52;1.23;;;1.23;;
75400;SDS011;63974;47.538;18.972;2023-06-24T15:05:55;1.40;;;1.30;;
75400;SDS011;63974;47.538;18.972;2023-06-24T15:08:58;1.17;;;1.17;;
75400;SDS011;63974;47.538;18.972;2023-06-24T15:12:01;1.10;;;1.10;;
75400;SDS011;63974;47.538;18.972;2023-06-24T15:15:05;2.05;;;1.50;;
75400;SDS011;63974;47.538;18.972;2023-06-24T15:18:08;1.63;;;1.52;;
75400;SDS011;63974;47.538;18.972;2023-06-24T15:21:11;1.70;;;1.60;;
75400;SDS011;63974;47.538;18.972;2023-06-24T15:24:34;1.90;;;1.80;;
75400;SDS011;63974;47.538;18.972;2023-06-24T15:27:37;1.45;;;1.30;;
75400;SDS011;63974;47.538;18.972;2023-06-24T15:30:39;1.10;;;1.10;;
75400;SDS011;63974;47.538;18.972;2023-06-24T15:33:42;1.33;;;1.33;;
75400;SDS011;63974;47.538;18.972;2023-06-24T15:36:45;1.17;;;1.17;;
75400;SDS011;63974;47.538;18.972;2023-06-24T15:39:48;1.10;;;1.10;;
75400;SDS011;63974;47.538;18.972;2023-06-24T15:42:51;1.13;;;0.90;;
75400;SDS011;63974;47.538;18.972;2023-06-24T15:45:55;1.00;;;0.90;;
75400;SDS011;63974;47.538;18.972;2023-06-24T15:48:58;1.40;;;1.05;;
75400;SDS011;63974;47.538;18.972;2023-06-24T15:52:01;1.00;;;1.00;;
75400;SDS011;63974;47.538;18.972;2023-06-24T15:55:04;1.20;;;1.10;;
75400;SDS011;63974;47.538;18.972;2023-06-24T15:58:07;0.90;;;0.90;;
75400;SDS011;63974;47.538;18.972;2023-06-24T16:01:10;1.40;;;1.30;;
75400;SDS011;63974;47.538;18.972;2023-06-24T16:04:13;1.30;;;1.20;;
75400;SDS011;63974;47.538;18.972;2023-06-24T16:07:16;2.60;;;1.63;;
75400;SDS011;63974;47.538;18.972;2023-06-24T16:10:19;1.50;;;1.40;;
75400;SDS011;63974;47.538;18.972;2023-06-24T16:13:21;2.45;;;1.40;;
75400;SDS011;63974;47.538;18.972;2023-06-24T16:16:24;1.20;;;1.10;;
75400;SDS011;63974;47.538;18.972;2023-06-24T16:19:27;1.60;;;1.50;;
75400;SDS011;63974;47.538;18.972;2023-06-24T16:22:30;1.63;;;1.53;;
75400;SDS011;63974;47.538;18.972;2023-06-24T16:25:33;2.63;;;1.50;;
75400;SDS011;63974;47.538;18.972;2023-06-24T16:28:36;2.33;;;1.48;;
75400;SDS011;63974;47.538;18.972;2023-06-24T16:31:39;1.70;;;1.60;;
75400;SDS011;63974;47.538;18.972;2023-06-24T16:34:42;1.92;;;1.80;;
75400;SDS011;63974;47.538;18.972;2023-06-24T16:37:44;1.50;;;1.33;;
75400;SDS011;63974;47.538;18.972;2023-06-24T16:40:47;1.70;;;1.60;;
75400;SDS011;63974;47.538;18.972;2023-06-24T16:43:50;2.03;;;1.80;;
75400;SDS011;63974;47.538;18.972;2023-06-24T16:46:53;3.00;;;1.90;;
75400;SDS011;63974;47.538;18.972;2023-06-24T16:49:56;4.55;;;1.92;;
75400;SDS011;63974;47.538;18.972;2023-06-24T16:52:58;3.00;;;2.00;;
75400;SDS011;63974;47.538;18.972;2023-06-24T16:56:01;3.47;;;1.97;;
75400;SDS011;63974;47.538;18.972;2023-06-24T16:59:04;2.05;;;1.95;;
75400;SDS011;63974;47.538;18.972;2023-06-24T17:02:07;1.50;;;1.40;;
75400;SDS011;63974;47.538;18.972;2023-06-24T17:05:10;1.90;;;1.50;;
75400;SDS011;63974;47.538;18.972;2023-06-24T17:08:12;1.40;;;1.30;;
75400;SDS011;63974;47.538;18.972;2023-06-24T17:11:15;1.97;;;1.77;;
75400;SDS011;63974;47.538;18.972;2023-06-24T17:14:18;1.98;;;1.88;;
75400;SDS011;63974;47.538;18.972;2023-06-24T17:17:21;3.80;;;2.10;;
75400;SDS011;63974;47.538;18.972;2023-06-24T17:20:24;2.17;;;1.98;;
75400;SDS011;63974;47.538;18.972;2023-06-24T17:23:26;2.67;;;1.87;;
75400;SDS011;63974;47.538;18.972;2023-06-24T17:26:31;2.27;;;2.07;;
75400;SDS011;63974;47.538;18.972;2023-06-24T17:29:35;2.10;;;1.90;;
75400;SDS011;63974;47.538;18.972;2023-06-24T17:32:38;1.92;;;1.70;;
75400;SDS011;63974;47.538;18.972;2023-06-24T17:35:42;1.63;;;1.50;;
75400;SDS011;63974;47.538;18.972;2023-06-24T17:38:45;1.90;;;1.80;;
75400;SDS011;63974;47.538;18.972;2023-06-24T17:41:48;1.60;;;1.50;;
75400;SDS011;63974;47.538;18.972;2023-06-24T17:44:51;1.48;;;1.38;;
75400;SDS011;63974;47.538;18.972;2023-06-24T17:47:54;1.67;;;1.58;;
75400;SDS011;63974;47.538;18.972;2023-06-24T17:50:57;1.63;;;1.52;;
75400;SDS011;63974;47.538;18.972;2023-06-24T17:54:00;2.13;;;1.57;;
75400;SDS011;63974;47.538;18.972;2023-06-24T17:57:02;1.70;;;1.60;;
75400;SDS011;63974;47.538;18.972;2023-06-24T18:00:06;1.92;;;1.48;;
75400;SDS011;63974;47.538;18.972;2023-06-24T18:03:09;2.20;;;1.50;;
75400;SDS011;63974;47.538;18.972;2023-06-24T18:06:12;1.50;;;1.40;;
75400;SDS011;63974;47.538;18.972;2023-06-24T18:09:15;3.83;;;1.50;;
75400;SDS011;63974;47.538;18.972;2023-06-24T18:12:19;3.00;;;1.90;;
75400;SDS011;63974;47.538;18.972;2023-06-24T18:15:21;1.58;;;1.42;;
75400;SDS011;63974;47.538;18.972;2023-06-24T18:18:24;2.20;;;1.67;;